sensor_id;sensor_type;location;lat;lon;timestamp;temperature;humidity
8332;DHT22;4203;48.144;14.118;2024-03-06T00:00:50;1.90;99.90
8332;DHT22;4203;48.144;14.118;2024-03-06T00:03:17;1.90;99.90
8332;DHT22;4203;48.144;14.118;2024-03-06T00:05:46;1.80;99.90
8332;DHT22;4203;48.144;14.118;2024-03-06T00:08:14;1.70;99.90
8332;DHT22;4203;48.144;14.118;2024-03-06T00:10:41;1.70;99.90
8332;DHT22;4203;48.144;14.118;2024-03-06T00:13:10;1.70;99.90
8332;DHT22;4203;48.144;14.118;2024-03-06T00:15:38;1.70;99.90
8332;DHT22;4203;48.144;14.118;2024-03-06T00:18:05;1.70;99.90
8332;DHT22;4203;48.144;14.118;2024-03-06T00:20:33;1.80;99.90
8332;DHT22;4203;48.144;14.118;2024-03-06T00:23:03;1.80;99.90
8332;DHT22;4203;48.144;14.118;2024-03-06T00:25:36;1.70;99.90
8332;DHT22;4203;48.144;14.118;2024-03-06T00:28:04;1.70;99.90
8332;DHT22;4203;48.144;14.118;2024-03-06T00:30:31;1.70;99.90
8332;DHT22;4203;48.144;14.118;2024-03-06T00:32:59;1.60;99.90
8332;DHT22;4203;48.144;14.118;2024-03-06T00:35:35;1.70;99.90
8332;DHT22;4203;48.144;14.118;2024-03-06T00:38:18;1.60;99.90
8332;DHT22;4203;48.144;14.118;2024-03-06T00:48:02;1.30;99.90
8332;DHT22;4203;48.144;14.118;2024-03-06T01:00:51;1.10;99.90
8332;DHT22;4203;48.144;14.118;2024-03-06T01:03:21;1.30;99.90
8332;DHT22;4203;48.144;14.118;2024-03-06T01:05:48;1.30;99.90
8332;DHT22;4203;48.144;14.118;2024-03-06T01:08:15;1.30;99.90
8332;DHT22;4203;48.144;14.118;2024-03-06T01:10:57;1.30;99.90
8332;DHT22;4203;48.144;14.118;2024-03-06T01:13:24;1.20;99.90
8332;DHT22;4203;48.144;14.118;2024-03-06T01:15:53;1.30;99.90
8332;DHT22;4203;48.144;14.118;2024-03-06T01:18:20;1.20;99.90
8332;DHT22;4203;48.144;14.118;2024-03-06T01:20:49;1.20;99.90
8332;DHT22;4203;48.144;14.118;2024-03-06T01:23:16;1.20;99.90
8332;DHT22;4203;48.144;14.118;2024-03-06T01:25:43;1.20;99.90
8332;DHT22;4203;48.144;14.118;2024-03-06T01:28:11;1.20;99.90
8332;DHT22;4203;48.144;14.118;2024-03-06T01:30:38;1.20;99.90
8332;DHT22;4203;48.144;14.118;2024-03-06T01:33:07;1.20;99.90
8332;DHT22;4203;48.144;14.118;2024-03-06T01:35:35;1.20;99.90
8332;DHT22;4203;48.144;14.118;2024-03-06T01:38:02;1.20;99.90
8332;DHT22;4203;48.144;14.118;2024-03-06T01:40:30;1.20;99.90
8332;DHT22;4203;48.144;14.118;2024-03-06T01:42:57;1.10;99.90
8332;DHT22;4203;48.144;14.118;2024-03-06T01:45:26;1.10;99.90
8332;DHT22;4203;48.144;14.118;2024-03-06T01:47:54;1.00;99.90
8332;DHT22;4203;48.144;14.118;2024-03-06T01:50:22;1.00;99.90
8332;DHT22;4203;48.144;14.118;2024-03-06T01:52:51;1.00;99.90
8332;DHT22;4203;48.144;14.118;2024-03-06T01:55:18;1.00;99.90
8332;DHT22;4203;48.144;14.118;2024-03-06T01:57:46;0.90;99.90
8332;DHT22;4203;48.144;14.118;2024-03-06T02:00:14;0.80;99.90
8332;DHT22;4203;48.144;14.118;2024-03-06T02:02:43;0.80;99.90
8332;DHT22;4203;48.144;14.118;2024-03-06T02:05:10;0.80;99.90
8332;DHT22;4203;48.144;14.118;2024-03-06T02:07:40;0.80;99.90
8332;DHT22;4203;48.144;14.118;2024-03-06T02:10:09;0.70;99.90
8332;DHT22;4203;48.144;14.118;2024-03-06T02:12:38;0.60;99.90
8332;DHT22;4203;48.144;14.118;2024-03-06T02:15:06;0.60;99.90
8332;DHT22;4203;48.144;14.118;2024-03-06T02:17:34;0.60;99.90
8332;DHT22;4203;48.144;14.118;2024-03-06T02:20:01;0.60;99.90
8332;DHT22;4203;48.144;14.118;2024-03-06T02:22:32;0.60;99.90
8332;DHT22;4203;48.144;14.118;2024-03-06T02:25:00;0.50;99.90
8332;DHT22;4203;48.144;14.118;2024-03-06T02:27:27;0.50;99.90
8332;DHT22;4203;48.144;14.118;2024-03-06T02:29:54;0.50;99.90
8332;DHT22;4203;48.144;14.118;2024-03-06T02:32:22;0.50;99.90
8332;DHT22;4203;48.144;14.118;2024-03-06T02:34:50;0.50;99.90
8332;DHT22;4203;48.144;14.118;2024-03-06T02:37:17;0.50;99.90
8332;DHT22;4203;48.144;14.118;2024-03-06T02:39:46;0.50;99.90
8332;DHT22;4203;48.144;14.118;2024-03-06T02:42:13;0.50;99.90
8332;DHT22;4203;48.144;14.118;2024-03-06T02:44:41;0.50;99.90
8332;DHT22;4203;48.144;14.118;2024-03-06T02:47:08;0.50;99.90
8332;DHT22;4203;48.144;14.118;2024-03-06T02:49:36;0.50;99.90
8332;DHT22;4203;48.144;14.118;2024-03-06T02:52:03;0.40;99.90
8332;DHT22;4203;48.144;14.118;2024-03-06T02:54:30;0.40;99.90
8332;DHT22;4203;48.144;14.118;2024-03-06T02:56:59;0.40;99.90
8332;DHT22;4203;48.144;14.118;2024-03-06T02:59:27;0.50;99.90
8332;DHT22;4203;48.144;14.118;2024-03-06T03:01:54;0.50;99.90
8332;DHT22;4203;48.144;14.118;2024-03-06T03:04:21;0.50;99.90
8332;DHT22;4203;48.144;14.118;2024-03-06T03:06:48;0.50;99.90
8332;DHT22;4203;48.144;14.118;2024-03-06T03:09:17;0.50;99.90
8332;DHT22;4203;48.144;14.118;2024-03-06T03:11:46;0.50;99.90
8332;DHT22;4203;48.144;14.118;2024-03-06T03:14:15;0.40;99.90
8332;DHT22;4203;48.144;14.118;2024-03-06T03:16:42;0.50;99.90
8332;DHT22;4203;48.144;14.118;2024-03-06T03:19:09;0.50;99.90
8332;DHT22;4203;48.144;14.118;2024-03-06T03:21:36;0.50;99.90
8332;DHT22;4203;48.144;14.118;2024-03-06T03:24:05;0.70;99.90
8332;DHT22;4203;48.144;14.118;2024-03-06T03:26:32;0.80;99.90
8332;DHT22;4203;48.144;14.118;2024-03-06T03:28:59;0.90;99.90
8332;DHT22;4203;48.144;14.118;2024-03-06T03:31:27;1.00;99.90
8332;DHT22;4203;48.144;14.118;2024-03-06T03:33:55;1.30;99.90
8332;DHT22;4203;48.144;14.118;2024-03-06T03:36:22;1.60;99.90
8332;DHT22;4203;48.144;14.118;2024-03-06T03:38:50;1.90;99.90
8332;DHT22;4203;48.144;14.118;2024-03-06T03:41:17;2.10;99.90
8332;DHT22;4203;48.144;14.118;2024-03-06T03:43:45;2.40;99.90
8332;DHT22;4203;48.144;14.118;2024-03-06T03:46:12;2.50;99.90
8332;DHT22;4203;48.144;14.118;2024-03-06T03:48:41;2.70;99.90
8332;DHT22;4203;48.144;14.118;2024-03-06T03:51:09;2.90;99.90
8332;DHT22;4203;48.144;14.118;2024-03-06T03:53:36;3.00;99.90
8332;DHT22;4203;48.144;14.118;2024-03-06T03:56:04;3.10;99.90
8332;DHT22;4203;48.144;14.118;2024-03-06T03:58:32;3.20;99.90
8332;DHT22;4203;48.144;14.118;2024-03-06T04:00:59;3.30;99.90
8332;DHT22;4203;48.144;14.118;2024-03-06T04:03:26;3.40;99.90
8332;DHT22;4203;48.144;14.118;2024-03-06T04:05:55;3.40;99.90
8332;DHT22;4203;48.144;14.118;2024-03-06T04:08:22;3.50;99.90
8332;DHT22;4203;48.144;14.118;2024-03-06T04:10:50;3.50;99.90
8332;DHT22;4203;48.144;14.118;2024-03-06T04:13:17;3.50;99.90
8332;DHT22;4203;48.144;14.118;2024-03-06T04:15:46;3.50;99.90
8332;DHT22;4203;48.144;14.118;2024-03-06T04:18:13;3.60;99.90
8332;DHT22;4203;48.144;14.118;2024-03-06T04:20:40;3.50;99.90
8332;DHT22;4203;48.144;14.118;2024-03-06T04:23:09;3.60;99.90
8332;DHT22;4203;48.144;14.118;2024-03-06T04:25:36;3.60;99.90
8332;DHT22;4203;48.144;14.118;2024-03-06T04:28:05;3.70;99.90
8332;DHT22;4203;48.144;14.118;2024-03-06T04:30:34;3.70;99.90
8332;DHT22;4203;48.144;14.118;2024-03-06T04:33:01;3.70;99.90
8332;DHT22;4203;48.144;14.118;2024-03-06T04:35:28;3.70;99.90
8332;DHT22;4203;48.144;14.118;2024-03-06T04:37:56;3.80;99.90
8332;DHT22;4203;48.144;14.118;2024-03-06T04:40:24;3.80;99.90
8332;DHT22;4203;48.144;14.118;2024-03-06T04:42:52;3.80;99.90
8332;DHT22;4203;48.144;14.118;2024-03-06T04:45:19;3.80;99.90
8332;DHT22;4203;48.144;14.118;2024-03-06T04:47:46;3.80;99.90
8332;DHT22;4203;48.144;14.118;2024-03-06T04:50:14;3.80;99.90
8332;DHT22;4203;48.144;14.118;2024-03-06T04:52:42;3.70;99.90
8332;DHT22;4203;48.144;14.118;2024-03-06T04:55:10;3.70;99.90
8332;DHT22;4203;48.144;14.118;2024-03-06T04:57:42;3.70;99.90
8332;DHT22;4203;48.144;14.118;2024-03-06T05:00:11;3.60;99.90
8332;DHT22;4203;48.144;14.118;2024-03-06T05:02:38;3.60;99.90
8332;DHT22;4203;48.144;14.118;2024-03-06T05:05:07;3.60;99.90
8332;DHT22;4203;48.144;14.118;2024-03-06T05:07:35;3.50;99.90
8332;DHT22;4203;48.144;14.118;2024-03-06T05:10:02;3.50;99.90
8332;DHT22;4203;48.144;14.118;2024-03-06T05:12:29;3.40;99.90
8332;DHT22;4203;48.144;14.118;2024-03-06T05:14:58;3.30;99.90
8332;DHT22;4203;48.144;14.118;2024-03-06T05:17:25;3.30;99.90
8332;DHT22;4203;48.144;14.118;2024-03-06T05:19:53;3.30;99.90
8332;DHT22;4203;48.144;14.118;2024-03-06T05:22:20;3.30;99.90
8332;DHT22;4203;48.144;14.118;2024-03-06T05:24:48;3.30;99.90
8332;DHT22;4203;48.144;14.118;2024-03-06T05:27:16;3.40;99.90
8332;DHT22;4203;48.144;14.118;2024-03-06T05:29:43;3.40;99.90
8332;DHT22;4203;48.144;14.118;2024-03-06T05:32:13;3.50;99.90
8332;DHT22;4203;48.144;14.118;2024-03-06T05:37:43;3.70;99.90
8332;DHT22;4203;48.144;14.118;2024-03-06T05:40:12;3.70;99.90
8332;DHT22;4203;48.144;14.118;2024-03-06T05:42:39;3.80;99.90
8332;DHT22;4203;48.144;14.118;2024-03-06T05:45:07;3.80;99.90
8332;DHT22;4203;48.144;14.118;2024-03-06T18:41:44;6.90;99.90
8332;DHT22;4203;48.144;14.118;2024-03-06T18:48:02;6.70;99.90
8332;DHT22;4203;48.144;14.118;2024-03-06T18:51:25;5.90;99.90
8332;DHT22;4203;48.144;14.118;2024-03-06T18:55:02;6.90;99.90
8332;DHT22;4203;48.144;14.118;2024-03-06T19:39:11;6.70;99.90
8332;DHT22;4203;48.144;14.118;2024-03-06T19:42:21;6.70;99.90
8332;DHT22;4203;48.144;14.118;2024-03-06T19:45:47;6.70;99.90
8332;DHT22;4203;48.144;14.118;2024-03-06T19:52:39;6.50;99.90
8332;DHT22;4203;48.144;14.118;2024-03-06T20:06:10;5.70;99.90
8332;DHT22;4203;48.144;14.118;2024-03-06T20:09:46;5.70;99.90
8332;DHT22;4203;48.144;14.118;2024-03-06T20:12:41;5.70;99.90
